createdAt,value
2023-02-16T00:01:50.666Z,70.80
2023-02-16T00:04:28.809Z,70.00
2023-02-16T00:06:56.303Z,71.70
2023-02-16T00:09:24.291Z,70.00
2023-02-16T00:12:11.661Z,70.60
2023-02-16T00:14:39.446Z,70.60
2023-02-16T00:17:07.088Z,70.20
2023-02-16T00:19:39.312Z,70.10
2023-02-16T00:22:07.642Z,71.40
2023-02-16T00:24:34.744Z,70.30
2023-02-16T00:27:01.704Z,69.70
2023-02-16T00:29:31.856Z,69.50
2023-02-16T00:32:00.884Z,70.80
2023-02-16T00:34:36.238Z,70.20
2023-02-16T00:37:09.072Z,71.30
2023-02-16T00:39:37.120Z,71.10
2023-02-16T00:42:19.104Z,70.20
2023-02-16T00:44:51.669Z,71.60
2023-02-16T00:47:39.828Z,71.00
2023-02-16T00:50:32.130Z,71.60
2023-02-16T00:52:59.446Z,71.20
2023-02-16T00:55:32.152Z,69.30
2023-02-16T00:58:29.621Z,71.00
2023-02-16T01:01:02.994Z,71.30
2023-02-16T01:03:29.994Z,70.70
2023-02-16T01:06:15.478Z,69.00
2023-02-16T01:09:01.462Z,68.70
2023-02-16T01:11:29.282Z,69.40
2023-02-16T01:13:58.061Z,70.50
2023-02-16T01:16:33.119Z,69.60
2023-02-16T01:18:59.818Z,70.50
2023-02-16T01:21:26.685Z,69.00
2023-02-16T01:23:53.386Z,69.50
2023-02-16T01:26:21.287Z,69.20
2023-02-16T01:28:48.463Z,69.90
2023-02-16T01:31:16.901Z,69.40
2023-02-16T01:33:44.065Z,69.80
2023-02-16T01:36:34.994Z,69.30
2023-02-16T01:39:02.742Z,71.50
2023-02-16T01:41:44.504Z,70.00
2023-02-16T01:44:36.506Z,68.70
2023-02-16T01:47:24.383Z,71.70
2023-02-16T01:49:51.102Z,71.10
2023-02-16T01:52:42.662Z,69.00
2023-02-16T01:55:30.095Z,71.40
2023-02-16T01:58:26.886Z,70.90
2023-02-16T02:00:54.750Z,70.70
2023-02-16T02:03:47.177Z,68.80
2023-02-16T02:06:19.209Z,70.80
2023-02-16T02:09:12.600Z,70.30
2023-02-16T02:11:49.410Z,71.50
2023-02-16T02:14:22.138Z,70.90
2023-02-16T02:17:02.749Z,70.20
2023-02-16T02:19:45.109Z,70.70
2023-02-16T02:22:53.595Z,70.30
2023-02-16T02:25:50.054Z,70.40
2023-02-16T02:28:31.371Z,69.60
2023-02-16T02:31:12.677Z,69.80
2023-02-16T02:34:11.539Z,70.60
2023-02-16T02:36:56.259Z,70.30
2023-02-16T02:40:01.824Z,69.40
2023-02-16T02:42:49.495Z,70.00
2023-02-16T02:45:23.295Z,69.40
2023-02-16T02:47:50.601Z,69.80
2023-02-16T02:50:42.254Z,68.10
2023-02-16T02:53:13.595Z,70.20
2023-02-16T02:56:05.709Z,69.80
2023-02-16T02:59:11.751Z,69.70
2023-02-16T03:01:43.316Z,69.30
2023-02-16T03:04:12.206Z,69.10
2023-02-16T03:06:42.489Z,69.20
2023-02-16T03:09:15.029Z,69.30
2023-02-16T03:12:01.585Z,69.70
2023-02-16T03:14:39.830Z,68.10
2023-02-16T03:17:35.084Z,69.80
2023-02-16T03:20:24.841Z,69.80
2023-02-16T03:23:10.233Z,69.30
2023-02-16T03:25:57.670Z,67.60
2023-02-16T03:28:48.056Z,69.30
2023-02-16T03:31:20.000Z,69.40
2023-02-16T03:33:54.451Z,69.50
2023-02-16T03:36:25.755Z,68.70
2023-02-16T03:38:54.394Z,69.70
2023-02-16T03:41:21.159Z,68.60
2023-02-16T03:43:47.938Z,67.60
2023-02-16T03:46:14.877Z,67.50
2023-02-16T03:48:41.645Z,67.70
2023-02-16T03:51:08.427Z,67.40
2023-02-16T03:53:35.172Z,67.40
2023-02-16T03:56:01.967Z,67.50
2023-02-16T03:58:28.697Z,67.30
2023-02-16T04:00:55.472Z,67.30
2023-02-16T04:03:22.249Z,67.20
2023-02-16T04:05:49.114Z,67.30
2023-02-16T04:08:15.875Z,67.20
2023-02-16T04:10:42.826Z,67.20
2023-02-16T04:13:09.663Z,67.40
2023-02-16T04:15:36.425Z,67.30
2023-02-16T04:18:03.334Z,67.00
2023-02-16T04:20:32.699Z,66.90
2023-02-16T04:22:59.690Z,68.30
2023-02-16T04:25:27.088Z,67.30
2023-02-16T04:27:55.590Z,67.10
2023-02-16T04:30:24.979Z,68.00
2023-02-16T04:32:52.128Z,67.80
2023-02-16T04:35:19.579Z,66.40
2023-02-16T04:37:46.409Z,67.10
2023-02-16T04:40:15.254Z,66.50
2023-02-16T04:42:42.949Z,67.50
2023-02-16T04:45:10.552Z,67.10
2023-02-16T04:47:37.626Z,67.00
2023-02-16T04:50:05.387Z,66.50
2023-02-16T04:52:32.395Z,67.10
2023-02-16T04:54:59.466Z,66.30
2023-02-16T04:57:26.178Z,66.30
2023-02-16T04:59:52.928Z,66.50
2023-02-16T05:02:19.628Z,66.60
2023-02-16T05:04:46.435Z,66.50
2023-02-16T05:07:13.185Z,66.50
2023-02-16T05:09:39.939Z,66.50
2023-02-16T05:12:30.096Z,66.60
2023-02-16T05:14:56.818Z,66.50
2023-02-16T05:17:26.488Z,66.80
2023-02-16T05:19:56.091Z,67.90
2023-02-16T05:22:23.228Z,67.90
2023-02-16T05:24:50.309Z,66.70
2023-02-16T05:27:28.832Z,66.70
2023-02-16T05:29:56.139Z,69.00
2023-02-16T05:32:22.943Z,67.00
2023-02-16T05:34:49.930Z,66.90
2023-02-16T05:37:18.340Z,66.90
2023-02-16T05:39:45.525Z,68.40
2023-02-16T05:42:12.320Z,67.80
2023-02-16T05:44:39.358Z,67.20
2023-02-16T05:47:06.145Z,67.70
2023-02-16T05:49:32.928Z,67.30
2023-02-16T05:51:59.851Z,67.30
2023-02-16T05:54:27.872Z,67.10
2023-02-16T05:56:55.085Z,67.00
2023-02-16T05:59:21.947Z,67.10
2023-02-16T06:01:51.617Z,67.00
2023-02-16T06:04:19.833Z,67.10
2023-02-16T06:06:46.580Z,67.60
2023-02-16T06:09:13.339Z,68.30
2023-02-16T06:11:40.275Z,67.40
2023-02-16T06:14:10.424Z,67.70
2023-02-16T06:16:39.158Z,68.90
2023-02-16T06:19:06.702Z,68.30
2023-02-16T06:21:33.846Z,68.00
2023-02-16T06:24:00.801Z,67.50
2023-02-16T06:26:28.012Z,67.60
2023-02-16T06:28:56.015Z,67.70
2023-02-16T06:31:23.598Z,69.20
2023-02-16T06:33:50.885Z,67.30
2023-02-16T06:36:18.193Z,67.20
2023-02-16T06:38:45.536Z,67.50
2023-02-16T06:41:12.983Z,67.80
2023-02-16T06:43:39.716Z,68.10
2023-02-16T06:46:06.592Z,67.50
2023-02-16T06:48:33.484Z,67.80
2023-02-16T06:51:00.200Z,67.90
2023-02-16T06:53:26.903Z,67.70
2023-02-16T06:55:53.627Z,67.90
2023-02-16T06:58:20.401Z,67.80
2023-02-16T07:00:47.319Z,67.80
2023-02-16T07:03:14.332Z,67.90
2023-02-16T07:05:41.200Z,68.10
2023-02-16T07:08:08.361Z,68.80
2023-02-16T07:10:49.014Z,68.20
2023-02-16T07:13:16.685Z,68.20
2023-02-16T07:15:43.355Z,68.20
2023-02-16T07:18:10.111Z,68.10
2023-02-16T07:20:37.811Z,67.90
2023-02-16T07:23:04.846Z,67.50
2023-02-16T07:25:31.601Z,67.60
2023-02-16T07:27:58.508Z,67.30
2023-02-16T07:30:25.373Z,67.20
2023-02-16T07:32:52.110Z,67.30
2023-02-16T07:35:18.912Z,67.10
2023-02-16T07:37:45.644Z,67.30
2023-02-16T07:40:12.871Z,67.20
2023-02-16T07:42:39.575Z,67.50
2023-02-16T07:45:06.515Z,67.10
2023-02-16T07:47:33.201Z,67.20
2023-02-16T07:49:59.868Z,66.90
2023-02-16T07:52:30.846Z,66.60
2023-02-16T07:54:59.026Z,66.70
2023-02-16T07:57:27.427Z,67.40
2023-02-16T07:59:55.162Z,66.90
2023-02-16T08:02:22.880Z,67.10
2023-02-16T08:04:52.712Z,67.00
2023-02-16T08:07:20.363Z,67.00
2023-02-16T08:09:47.326Z,67.60
2023-02-16T08:12:15.579Z,66.70
2023-02-16T08:14:42.874Z,67.60
2023-02-16T08:17:10.117Z,66.90
2023-02-16T08:19:40.196Z,67.30
2023-02-16T08:22:08.316Z,66.40
2023-02-16T08:24:35.644Z,67.60
2023-02-16T08:27:04.960Z,66.90
2023-02-16T08:29:32.742Z,67.80
2023-02-16T08:31:59.593Z,67.30
2023-02-16T08:34:26.760Z,66.50
2023-02-16T08:36:57.537Z,66.50
2023-02-16T08:39:27.241Z,68.10
2023-02-16T08:41:55.021Z,67.30
2023-02-16T08:44:23.794Z,66.80
2023-02-16T08:46:52.687Z,67.20
2023-02-16T08:49:22.145Z,66.90
2023-02-16T08:51:52.071Z,67.40
2023-02-16T08:54:22.296Z,67.60
2023-02-16T08:56:49.591Z,67.40
2023-02-16T08:59:18.511Z,66.20
2023-02-16T09:01:46.025Z,67.10
2023-02-16T09:04:13.528Z,66.40
2023-02-16T09:06:42.032Z,66.40
2023-02-16T09:09:09.760Z,66.90
2023-02-16T09:11:37.290Z,66.80
2023-02-16T09:14:04.775Z,66.70
2023-02-16T09:16:38.395Z,66.80
2023-02-16T09:19:06.699Z,66.90
2023-02-16T09:21:33.833Z,67.50
2023-02-16T09:24:04.451Z,67.20
2023-02-16T09:26:34.627Z,68.00
2023-02-16T09:29:02.209Z,68.20
2023-02-16T09:31:31.417Z,67.90
2023-02-16T09:34:02.513Z,68.40
2023-02-16T09:36:29.567Z,66.90
2023-02-16T09:38:56.918Z,67.70
2023-02-16T09:41:40.651Z,68.40
2023-02-16T09:44:31.262Z,69.30
2023-02-16T09:47:01.295Z,69.80
2023-02-16T09:49:56.871Z,70.00
2023-02-16T09:52:28.644Z,70.90
2023-02-16T09:54:58.259Z,68.60
2023-02-16T09:57:56.984Z,69.90
2023-02-16T10:00:51.353Z,70.30
2023-02-16T10:03:41.995Z,70.30
2023-02-16T10:06:31.075Z,70.60
2023-02-16T10:09:06.099Z,71.20
2023-02-16T10:11:54.593Z,70.60
2023-02-16T10:14:31.678Z,70.60
2023-02-16T10:17:28.256Z,71.50
2023-02-16T10:20:16.124Z,71.10
2023-02-16T10:22:48.355Z,71.00
2023-02-16T10:25:54.620Z,71.60
2023-02-16T10:28:34.986Z,71.90
2023-02-16T10:31:09.060Z,71.20
2023-02-16T10:33:57.511Z,71.20
2023-02-16T10:37:09.581Z,71.10
2023-02-16T10:40:04.618Z,70.90
2023-02-16T10:42:41.915Z,70.60
2023-02-16T10:45:15.470Z,70.80
2023-02-16T10:47:45.206Z,71.00
2023-02-16T10:50:50.727Z,70.00
2023-02-16T10:53:33.379Z,70.50
2023-02-16T10:56:00.132Z,70.60
2023-02-16T10:58:38.227Z,68.60
2023-02-16T11:01:38.661Z,70.10
2023-02-16T11:04:06.195Z,70.90
2023-02-16T11:06:36.396Z,69.00
2023-02-16T11:09:04.286Z,68.70
2023-02-16T11:11:37.512Z,69.00
2023-02-16T11:14:09.151Z,70.60
2023-02-16T11:16:35.977Z,69.90
2023-02-16T11:19:24.819Z,68.30
2023-02-16T11:21:56.418Z,70.60
2023-02-16T11:24:34.724Z,70.00
2023-02-16T11:27:03.147Z,70.10
2023-02-16T11:29:30.447Z,69.40
2023-02-16T11:31:58.009Z,68.70
2023-02-16T11:34:35.234Z,69.10
2023-02-16T11:37:23.747Z,69.80
2023-02-16T11:39:57.034Z,70.60
2023-02-16T11:42:33.239Z,70.60
2023-02-16T11:45:02.053Z,70.10
2023-02-16T11:47:32.731Z,69.60
2023-02-16T11:50:30.277Z,70.00
2023-02-16T11:53:23.344Z,70.80
2023-02-16T11:55:51.099Z,70.60
2023-02-16T11:58:27.433Z,69.10
2023-02-16T12:01:12.611Z,70.50
2023-02-16T12:03:59.750Z,70.30
2023-02-16T12:06:34.724Z,67.60
2023-02-16T12:09:18.754Z,70.00
2023-02-16T12:12:12.877Z,67.30
2023-02-16T12:15:16.520Z,70.10
2023-02-16T12:18:04.294Z,69.70
2023-02-16T12:20:55.899Z,69.60
2023-02-16T12:23:47.925Z,69.30
2023-02-16T12:26:37.159Z,69.00
2023-02-16T12:29:26.936Z,68.70
2023-02-16T12:32:04.127Z,66.60
2023-02-16T12:34:50.914Z,66.60
2023-02-16T12:37:26.776Z,69.20
2023-02-16T12:40:11.781Z,68.50
2023-02-16T12:42:41.484Z,68.50
2023-02-16T12:45:18.784Z,68.90
2023-02-16T12:47:54.357Z,69.00
2023-02-16T12:50:27.588Z,68.70
2023-02-16T12:53:11.919Z,66.20
2023-02-16T12:55:46.835Z,68.00
2023-02-16T12:58:22.338Z,68.10
2023-02-16T13:01:01.433Z,67.20
2023-02-16T13:03:44.540Z,67.70
2023-02-16T13:06:26.570Z,67.00
2023-02-16T13:09:11.489Z,67.60
2023-02-16T13:11:49.797Z,64.40
2023-02-16T13:14:28.004Z,67.10
2023-02-16T13:17:02.395Z,66.40
2023-02-16T13:19:29.390Z,66.60
2023-02-16T13:22:25.649Z,64.60
2023-02-16T13:25:02.541Z,66.50
2023-02-16T13:27:45.627Z,66.50
2023-02-16T13:30:54.028Z,66.30
2023-02-16T13:33:39.211Z,66.10
2023-02-16T13:36:30.873Z,65.90
2023-02-16T13:39:20.868Z,65.60
2023-02-16T13:42:08.990Z,65.90
2023-02-16T13:44:44.616Z,66.00
2023-02-16T13:47:20.425Z,67.00
2023-02-16T13:49:48.145Z,66.20
2023-02-16T13:52:38.585Z,64.20
2023-02-16T13:55:22.314Z,65.70
2023-02-16T13:57:50.842Z,64.30
2023-02-16T14:00:29.536Z,63.10
2023-02-16T14:02:58.602Z,65.20
2023-02-16T14:05:31.728Z,62.50
2023-02-16T14:08:19.400Z,64.50
2023-02-16T14:10:58.797Z,64.90
2023-02-16T14:13:30.072Z,64.60
2023-02-16T14:15:59.208Z,64.60
2023-02-16T14:18:45.902Z,64.20
2023-02-16T14:21:25.584Z,64.90
2023-02-16T14:23:57.565Z,65.50
2023-02-16T14:26:25.117Z,65.10
2023-02-16T14:29:15.826Z,64.00
2023-02-16T14:31:57.457Z,64.80
2023-02-16T14:34:27.522Z,65.30
2023-02-16T14:37:09.594Z,63.10
2023-02-16T14:39:58.458Z,65.50
2023-02-16T14:42:32.052Z,64.50
2023-02-16T14:45:34.235Z,64.90
2023-02-16T14:48:07.093Z,64.60
2023-02-16T14:51:01.492Z,65.20
2023-02-16T14:53:37.262Z,64.70
2023-02-16T14:56:25.830Z,64.90
2023-02-16T14:59:11.735Z,65.00
2023-02-16T15:01:43.991Z,63.30
2023-02-16T15:04:11.620Z,64.50
2023-02-16T15:06:45.747Z,64.40
2023-02-16T15:09:24.535Z,65.80
2023-02-16T15:12:16.658Z,66.20
2023-02-16T15:14:49.348Z,66.00
2023-02-16T15:17:35.414Z,65.50
2023-02-16T15:20:36.530Z,65.70
2023-02-16T15:23:21.421Z,66.00
2023-02-16T15:26:00.545Z,66.60
2023-02-16T15:28:30.810Z,66.30
2023-02-16T15:31:01.734Z,66.40
2023-02-16T15:33:36.303Z,66.90
2023-02-16T15:36:12.038Z,67.80
2023-02-16T15:38:41.791Z,68.30
2023-02-16T15:41:14.268Z,67.40
2023-02-16T15:43:48.175Z,67.90
2023-02-16T15:46:16.939Z,68.20
2023-02-16T15:48:43.732Z,68.20
2023-02-16T15:51:16.195Z,67.30
2023-02-16T15:53:46.618Z,69.30
2023-02-16T15:56:28.575Z,67.10
2023-02-16T15:59:01.524Z,69.40
2023-02-16T16:01:34.041Z,69.90
2023-02-16T16:06:54.823Z,70.20
2023-02-16T16:09:25.593Z,70.50
2023-02-16T16:11:55.793Z,70.90
2023-02-16T16:14:23.272Z,71.40
2023-02-16T16:16:50.744Z,70.00
2023-02-16T16:19:24.682Z,70.80
2023-02-16T16:21:56.207Z,71.70
2023-02-16T16:24:38.212Z,71.40
2023-02-16T16:27:14.255Z,72.50
2023-02-16T16:29:46.738Z,72.40
2023-02-16T16:32:31.689Z,71.90
2023-02-16T16:34:58.602Z,73.00
2023-02-16T16:37:31.642Z,70.90
2023-02-16T16:40:20.287Z,73.50
2023-02-16T16:43:02.254Z,73.20
2023-02-16T16:45:43.729Z,73.70
2023-02-16T16:48:34.518Z,73.60
2023-02-16T16:51:23.226Z,73.80
2023-02-16T16:54:00.434Z,73.50
2023-02-16T16:56:29.107Z,73.40
2023-02-16T16:58:58.178Z,73.30
2023-02-16T17:01:27.240Z,73.30
2023-02-16T17:03:54.408Z,73.60
2023-02-16T17:06:22.059Z,72.90
2023-02-16T17:08:48.858Z,73.30
2023-02-16T17:11:37.319Z,72.70
2023-02-16T17:14:16.956Z,75.00
2023-02-16T17:16:46.720Z,74.80
2023-02-16T17:19:14.971Z,74.20
2023-02-16T17:21:42.625Z,73.70
2023-02-16T17:24:10.104Z,73.60
2023-02-16T17:26:37.658Z,72.90
2023-02-16T17:29:05.108Z,73.60
2023-02-16T17:31:32.013Z,73.30
2023-02-16T17:33:58.919Z,73.00
2023-02-16T17:36:27.576Z,73.10
2023-02-16T17:38:54.717Z,74.10
2023-02-16T17:41:23.876Z,73.50
2023-02-16T17:43:50.998Z,75.30
2023-02-16T17:46:18.921Z,74.40
2023-02-16T17:48:50.494Z,74.40
2023-02-16T17:51:20.303Z,75.00
2023-02-16T17:53:47.005Z,74.90
2023-02-16T17:56:15.390Z,73.50
2023-02-16T17:58:42.391Z,74.30
2023-02-16T18:01:13.740Z,73.70
2023-02-16T18:03:40.572Z,75.30
2023-02-16T18:06:07.507Z,74.20
2023-02-16T18:08:34.352Z,73.70
2023-02-16T18:11:03.795Z,73.70
2023-02-16T18:13:31.351Z,73.40
2023-02-16T18:16:00.119Z,74.40
2023-02-16T18:18:26.803Z,74.70
2023-02-16T18:20:53.577Z,74.00
2023-02-16T18:23:20.320Z,73.90
2023-02-16T18:25:47.352Z,73.90
2023-02-16T18:28:20.883Z,73.80
2023-02-16T18:30:49.341Z,75.60
2023-02-16T18:33:17.308Z,74.80
2023-02-16T18:35:44.132Z,75.00
2023-02-16T18:38:10.929Z,74.30
2023-02-16T18:40:37.665Z,74.30
2023-02-16T18:43:04.694Z,74.30
2023-02-16T18:45:31.382Z,74.40
2023-02-16T18:47:58.100Z,74.40
2023-02-16T18:50:24.832Z,75.50
2023-02-16T18:52:51.572Z,74.50
2023-02-16T18:55:18.454Z,74.70
2023-02-16T18:57:45.174Z,74.60
2023-02-16T19:00:14.814Z,74.50
2023-02-16T19:02:43.301Z,76.30
2023-02-16T19:05:10.974Z,75.80
2023-02-16T19:07:38.111Z,75.40
2023-02-16T19:10:07.214Z,74.70
2023-02-16T19:12:34.013Z,75.40
2023-02-16T19:15:00.755Z,74.60
2023-02-16T19:17:27.538Z,74.80
2023-02-16T19:19:54.233Z,74.90
2023-02-16T19:22:21.488Z,74.70
2023-02-16T19:24:50.307Z,74.90
2023-02-16T19:27:18.163Z,74.90
2023-02-16T19:29:47.212Z,75.40
2023-02-16T19:32:14.024Z,74.70
2023-02-16T19:34:40.750Z,75.00
2023-02-16T19:37:07.486Z,75.00
2023-02-16T19:39:35.017Z,75.00
2023-02-16T19:42:02.009Z,76.00
2023-02-16T19:44:28.847Z,75.20
2023-02-16T19:46:55.516Z,75.20
2023-02-16T19:49:22.228Z,75.10
2023-02-16T19:51:49.290Z,75.40
2023-02-16T19:54:16.027Z,74.90
2023-02-16T19:56:42.855Z,74.90
2023-02-16T19:59:09.878Z,75.40
2023-02-16T20:01:36.758Z,75.70
2023-02-16T20:04:03.903Z,75.00
2023-02-16T20:06:34.524Z,75.00
2023-02-16T20:09:01.473Z,77.20
2023-02-16T20:11:29.543Z,75.70
2023-02-16T20:13:56.851Z,76.20
2023-02-16T20:16:24.870Z,75.10
2023-02-16T20:18:51.638Z,75.60
2023-02-16T20:21:23.446Z,74.80
2023-02-16T20:23:52.720Z,76.70
2023-02-16T20:26:22.611Z,76.20
2023-02-16T20:28:50.219Z,76.20
2023-02-16T20:31:21.402Z,75.20
2023-02-16T20:33:48.562Z,76.20
2023-02-16T20:36:16.140Z,75.10
2023-02-16T20:38:43.486Z,75.80
2023-02-16T20:41:10.233Z,75.40
2023-02-16T20:43:37.209Z,75.00
2023-02-16T20:46:06.852Z,75.30
2023-02-16T20:48:34.599Z,76.10
2023-02-16T20:51:03.873Z,75.60
2023-02-16T20:53:30.624Z,76.50
2023-02-16T20:56:05.613Z,75.20
2023-02-16T20:58:33.811Z,77.20
2023-02-16T21:01:00.923Z,75.90
2023-02-16T21:03:28.091Z,75.80
2023-02-16T21:05:55.194Z,75.70
2023-02-16T21:08:21.975Z,75.80
2023-02-16T21:10:48.686Z,75.30
2023-02-16T21:13:15.427Z,75.10
2023-02-16T21:15:42.130Z,75.20
2023-02-16T21:18:10.452Z,75.20
2023-02-16T21:20:37.417Z,75.30
2023-02-16T21:23:04.282Z,75.50
2023-02-16T21:25:32.063Z,75.40
2023-02-16T21:27:58.795Z,76.50
2023-02-16T21:30:25.939Z,75.40
2023-02-16T21:32:52.721Z,75.60
2023-02-16T21:35:19.481Z,75.40
2023-02-16T21:37:46.338Z,75.40
2023-02-16T21:40:32.206Z,75.40
2023-02-16T21:42:59.080Z,75.80
2023-02-16T21:45:25.836Z,75.70
2023-02-16T21:48:11.138Z,75.60
2023-02-16T21:50:40.858Z,75.20
2023-02-16T21:53:08.764Z,77.10
2023-02-16T21:55:57.750Z,76.30
2023-02-16T21:58:26.818Z,76.90
2023-02-16T22:00:56.336Z,76.30
2023-02-16T22:03:23.079Z,76.70
2023-02-16T22:05:49.750Z,75.50
2023-02-16T22:08:17.786Z,75.50
2023-02-16T22:10:44.556Z,75.50
2023-02-16T22:13:11.368Z,75.40
2023-02-16T22:15:38.568Z,75.50
2023-02-16T22:18:06.275Z,75.90
2023-02-16T22:20:33.404Z,75.80
2023-02-16T22:23:00.170Z,75.50
2023-02-16T22:25:27.038Z,75.30
2023-02-16T22:27:54.878Z,75.30
2023-02-16T22:30:21.817Z,75.20
2023-02-16T22:32:50.210Z,75.30
2023-02-16T22:35:17.377Z,76.20
2023-02-16T22:37:44.140Z,75.50
2023-02-16T22:40:10.988Z,75.40
2023-02-16T22:42:37.909Z,75.40
2023-02-16T22:45:05.014Z,75.30
2023-02-16T22:47:31.772Z,75.40
2023-02-16T22:49:58.506Z,75.30
2023-02-16T22:52:25.254Z,75.30
2023-02-16T22:54:52.068Z,75.30
2023-02-16T22:57:19.164Z,74.90
2023-02-16T22:59:45.941Z,75.50
2023-02-16T23:02:12.705Z,75.20
2023-02-16T23:04:41.204Z,75.00
2023-02-16T23:07:09.086Z,74.90
2023-02-16T23:09:35.882Z,75.00
2023-02-16T23:12:02.776Z,75.00
2023-02-16T23:14:30.246Z,75.20
2023-02-16T23:16:57.095Z,75.10
2023-02-16T23:19:26.194Z,74.90
2023-02-16T23:21:53.999Z,76.00
2023-02-16T23:24:23.014Z,75.70
2023-02-16T23:26:51.064Z,75.90
2023-02-16T23:29:18.019Z,75.50
2023-02-16T23:31:46.874Z,74.70
2023-02-16T23:34:15.194Z,75.60
2023-02-16T23:36:42.322Z,75.30
2023-02-16T23:39:12.520Z,74.90
2023-02-16T23:41:40.072Z,76.00
2023-02-16T23:44:08.565Z,75.40
2023-02-16T23:46:35.435Z,75.40
2023-02-16T23:49:02.183Z,74.80
2023-02-16T23:51:28.953Z,74.60
2023-02-16T23:53:56.086Z,75.80
2023-02-16T23:56:25.847Z,75.00
2023-02-16T23:58:55.796Z,75.80
